sensor_id;sensor_type;location;lat;lon;timestamp;temperature;humidity
14000;DHT22;7075;53.574;10.054;2022-08-21T00:01:22;19.80;99.90
14000;DHT22;7075;53.574;10.054;2022-08-21T00:03:49;19.70;99.90
14000;DHT22;7075;53.574;10.054;2022-08-21T00:06:14;19.70;99.90
14000;DHT22;7075;53.574;10.054;2022-08-21T00:08:40;19.70;99.90
14000;DHT22;7075;53.574;10.054;2022-08-21T00:11:06;19.70;99.90
14000;DHT22;7075;53.574;10.054;2022-08-21T00:13:32;19.70;99.90
14000;DHT22;7075;53.574;10.054;2022-08-21T00:15:58;19.70;99.90
14000;DHT22;7075;53.574;10.054;2022-08-21T00:18:24;19.70;99.90
14000;DHT22;7075;53.574;10.054;2022-08-21T00:20:50;19.60;99.90
14000;DHT22;7075;53.574;10.054;2022-08-21T00:23:16;19.50;99.90
14000;DHT22;7075;53.574;10.054;2022-08-21T00:25:44;19.60;99.90
14000;DHT22;7075;53.574;10.054;2022-08-21T00:28:11;19.50;99.90
14000;DHT22;7075;53.574;10.054;2022-08-21T00:30:37;19.40;99.90
14000;DHT22;7075;53.574;10.054;2022-08-21T00:33:04;19.40;99.90
14000;DHT22;7075;53.574;10.054;2022-08-21T00:35:35;19.40;99.90
14000;DHT22;7075;53.574;10.054;2022-08-21T00:38:01;19.40;99.90
14000;DHT22;7075;53.574;10.054;2022-08-21T00:40:41;19.30;99.90
14000;DHT22;7075;53.574;10.054;2022-08-21T00:43:10;19.20;99.90
14000;DHT22;7075;53.574;10.054;2022-08-21T00:45:37;19.20;99.90
14000;DHT22;7075;53.574;10.054;2022-08-21T00:48:03;19.10;99.90
14000;DHT22;7075;53.574;10.054;2022-08-21T00:50:32;19.00;99.90
14000;DHT22;7075;53.574;10.054;2022-08-21T00:52:59;19.00;99.90
14000;DHT22;7075;53.574;10.054;2022-08-21T00:55:26;19.00;99.90
14000;DHT22;7075;53.574;10.054;2022-08-21T00:57:55;19.00;99.90
14000;DHT22;7075;53.574;10.054;2022-08-21T01:00:29;19.00;99.90
14000;DHT22;7075;53.574;10.054;2022-08-21T01:02:57;19.00;99.90
14000;DHT22;7075;53.574;10.054;2022-08-21T01:05:23;19.00;99.90
14000;DHT22;7075;53.574;10.054;2022-08-21T01:07:49;19.00;99.90
14000;DHT22;7075;53.574;10.054;2022-08-21T01:10:16;18.90;99.90
14000;DHT22;7075;53.574;10.054;2022-08-21T01:12:42;18.90;99.90
14000;DHT22;7075;53.574;10.054;2022-08-21T01:15:09;18.90;99.90
14000;DHT22;7075;53.574;10.054;2022-08-21T01:17:35;18.70;99.90
14000;DHT22;7075;53.574;10.054;2022-08-21T01:20:05;18.80;99.90
14000;DHT22;7075;53.574;10.054;2022-08-21T01:22:32;18.70;99.90
14000;DHT22;7075;53.574;10.054;2022-08-21T01:24:57;18.70;99.90
14000;DHT22;7075;53.574;10.054;2022-08-21T01:27:23;18.60;99.90
14000;DHT22;7075;53.574;10.054;2022-08-21T01:30:02;18.70;99.90
14000;DHT22;7075;53.574;10.054;2022-08-21T01:32:28;18.60;99.90
14000;DHT22;7075;53.574;10.054;2022-08-21T01:34:54;18.60;99.90
14000;DHT22;7075;53.574;10.054;2022-08-21T01:37:21;18.60;99.90
14000;DHT22;7075;53.574;10.054;2022-08-21T01:39:47;18.50;99.90
14000;DHT22;7075;53.574;10.054;2022-08-21T01:42:14;18.50;99.90
14000;DHT22;7075;53.574;10.054;2022-08-21T01:44:40;18.50;99.90
14000;DHT22;7075;53.574;10.054;2022-08-21T01:47:08;18.60;99.90
14000;DHT22;7075;53.574;10.054;2022-08-21T01:49:35;18.60;99.90
14000;DHT22;7075;53.574;10.054;2022-08-21T01:52:02;18.40;99.90
14000;DHT22;7075;53.574;10.054;2022-08-21T01:54:28;18.40;99.90
14000;DHT22;7075;53.574;10.054;2022-08-21T01:56:56;18.40;99.90
14000;DHT22;7075;53.574;10.054;2022-08-21T01:59:23;18.40;99.90
14000;DHT22;7075;53.574;10.054;2022-08-21T02:01:49;18.50;99.90
14000;DHT22;7075;53.574;10.054;2022-08-21T02:04:15;18.50;99.90
14000;DHT22;7075;53.574;10.054;2022-08-21T02:06:41;18.50;99.90
14000;DHT22;7075;53.574;10.054;2022-08-21T02:09:10;18.50;99.90
14000;DHT22;7075;53.574;10.054;2022-08-21T02:11:36;18.40;99.90
14000;DHT22;7075;53.574;10.054;2022-08-21T02:14:08;18.40;99.90
14000;DHT22;7075;53.574;10.054;2022-08-21T02:16:34;18.40;99.90
14000;DHT22;7075;53.574;10.054;2022-08-21T02:19:00;18.40;99.90
14000;DHT22;7075;53.574;10.054;2022-08-21T02:21:26;18.40;99.90
14000;DHT22;7075;53.574;10.054;2022-08-21T02:23:52;18.40;99.90
14000;DHT22;7075;53.574;10.054;2022-08-21T02:26:17;18.40;99.90
14000;DHT22;7075;53.574;10.054;2022-08-21T02:28:43;18.40;99.90
14000;DHT22;7075;53.574;10.054;2022-08-21T02:31:09;18.30;99.90
14000;DHT22;7075;53.574;10.054;2022-08-21T02:33:35;18.20;99.90
14000;DHT22;7075;53.574;10.054;2022-08-21T02:36:01;18.30;99.90
14000;DHT22;7075;53.574;10.054;2022-08-21T02:38:31;18.30;99.90
14000;DHT22;7075;53.574;10.054;2022-08-21T02:40:58;18.30;99.90
14000;DHT22;7075;53.574;10.054;2022-08-21T02:43:26;18.30;99.90
14000;DHT22;7075;53.574;10.054;2022-08-21T02:45:53;18.30;99.90
14000;DHT22;7075;53.574;10.054;2022-08-21T02:48:25;18.20;99.90
14000;DHT22;7075;53.574;10.054;2022-08-21T02:51:10;18.20;99.90
14000;DHT22;7075;53.574;10.054;2022-08-21T02:53:36;18.10;99.90
14000;DHT22;7075;53.574;10.054;2022-08-21T02:56:05;18.20;99.90
14000;DHT22;7075;53.574;10.054;2022-08-21T02:58:34;18.20;99.90
14000;DHT22;7075;53.574;10.054;2022-08-21T03:01:01;18.20;99.90
14000;DHT22;7075;53.574;10.054;2022-08-21T03:03:27;18.10;99.90
14000;DHT22;7075;53.574;10.054;2022-08-21T03:05:54;18.10;99.90
14000;DHT22;7075;53.574;10.054;2022-08-21T03:08:20;18.10;99.90
14000;DHT22;7075;53.574;10.054;2022-08-21T03:10:49;18.00;99.90
14000;DHT22;7075;53.574;10.054;2022-08-21T03:13:15;18.00;99.90
14000;DHT22;7075;53.574;10.054;2022-08-21T03:15:42;18.00;99.90
14000;DHT22;7075;53.574;10.054;2022-08-21T03:18:09;18.00;99.90
14000;DHT22;7075;53.574;10.054;2022-08-21T03:20:35;18.00;99.90
14000;DHT22;7075;53.574;10.054;2022-08-21T03:23:02;18.00;99.90
14000;DHT22;7075;53.574;10.054;2022-08-21T03:25:29;17.80;99.90
14000;DHT22;7075;53.574;10.054;2022-08-21T03:28:02;17.80;99.90
14000;DHT22;7075;53.574;10.054;2022-08-21T03:30:28;17.80;99.90
14000;DHT22;7075;53.574;10.054;2022-08-21T03:32:57;17.80;99.90
14000;DHT22;7075;53.574;10.054;2022-08-21T03:35:24;17.80;99.90
14000;DHT22;7075;53.574;10.054;2022-08-21T03:37:50;17.80;99.90
14000;DHT22;7075;53.574;10.054;2022-08-21T03:40:17;17.80;99.90
14000;DHT22;7075;53.574;10.054;2022-08-21T03:42:44;17.80;99.90
14000;DHT22;7075;53.574;10.054;2022-08-21T03:45:14;17.70;99.90
14000;DHT22;7075;53.574;10.054;2022-08-21T03:47:51;17.70;99.90
14000;DHT22;7075;53.574;10.054;2022-08-21T03:50:17;17.70;99.90
14000;DHT22;7075;53.574;10.054;2022-08-21T03:52:43;17.70;99.90
14000;DHT22;7075;53.574;10.054;2022-08-21T03:55:08;17.70;99.90
14000;DHT22;7075;53.574;10.054;2022-08-21T03:57:34;17.60;99.90
14000;DHT22;7075;53.574;10.054;2022-08-21T03:59:59;17.60;99.90
14000;DHT22;7075;53.574;10.054;2022-08-21T04:02:25;17.60;99.90
14000;DHT22;7075;53.574;10.054;2022-08-21T04:04:50;17.60;99.90
14000;DHT22;7075;53.574;10.054;2022-08-21T04:07:16;17.60;99.90
14000;DHT22;7075;53.574;10.054;2022-08-21T04:09:43;17.60;99.90
14000;DHT22;7075;53.574;10.054;2022-08-21T04:12:08;17.50;99.90
14000;DHT22;7075;53.574;10.054;2022-08-21T04:14:34;17.50;99.90
14000;DHT22;7075;53.574;10.054;2022-08-21T04:17:00;17.50;99.90
14000;DHT22;7075;53.574;10.054;2022-08-21T04:19:25;17.50;99.90
14000;DHT22;7075;53.574;10.054;2022-08-21T04:21:51;17.50;99.90
14000;DHT22;7075;53.574;10.054;2022-08-21T04:24:17;17.50;99.90
14000;DHT22;7075;53.574;10.054;2022-08-21T04:26:42;17.50;99.90
14000;DHT22;7075;53.574;10.054;2022-08-21T04:29:08;17.50;99.90
14000;DHT22;7075;53.574;10.054;2022-08-21T04:31:35;17.40;99.90
14000;DHT22;7075;53.574;10.054;2022-08-21T04:34:03;17.40;99.90
14000;DHT22;7075;53.574;10.054;2022-08-21T04:36:30;17.40;99.90
14000;DHT22;7075;53.574;10.054;2022-08-21T04:38:55;17.40;99.90
14000;DHT22;7075;53.574;10.054;2022-08-21T04:41:24;17.40;99.90
14000;DHT22;7075;53.574;10.054;2022-08-21T04:43:49;17.40;99.90
14000;DHT22;7075;53.574;10.054;2022-08-21T04:46:15;17.40;99.90
14000;DHT22;7075;53.574;10.054;2022-08-21T04:48:41;17.40;99.90
14000;DHT22;7075;53.574;10.054;2022-08-21T04:51:34;17.50;99.90
14000;DHT22;7075;53.574;10.054;2022-08-21T04:54:09;17.50;99.90
14000;DHT22;7075;53.574;10.054;2022-08-21T04:56:39;17.50;99.90
14000;DHT22;7075;53.574;10.054;2022-08-21T04:59:11;17.50;99.90
14000;DHT22;7075;53.574;10.054;2022-08-21T05:01:40;17.50;99.90
14000;DHT22;7075;53.574;10.054;2022-08-21T05:04:08;17.50;99.90
14000;DHT22;7075;53.574;10.054;2022-08-21T05:06:36;17.50;99.90
14000;DHT22;7075;53.574;10.054;2022-08-21T05:09:04;17.40;99.90
14000;DHT22;7075;53.574;10.054;2022-08-21T05:11:30;17.50;99.90
14000;DHT22;7075;53.574;10.054;2022-08-21T05:13:57;17.50;99.90
14000;DHT22;7075;53.574;10.054;2022-08-21T05:16:22;17.50;99.90
14000;DHT22;7075;53.574;10.054;2022-08-21T05:18:48;17.50;99.90
14000;DHT22;7075;53.574;10.054;2022-08-21T05:21:13;17.40;99.90
14000;DHT22;7075;53.574;10.054;2022-08-21T05:23:39;17.40;99.90
14000;DHT22;7075;53.574;10.054;2022-08-21T05:26:05;17.50;99.90
14000;DHT22;7075;53.574;10.054;2022-08-21T05:28:31;17.50;99.90
14000;DHT22;7075;53.574;10.054;2022-08-21T05:30:57;17.50;99.90
14000;DHT22;7075;53.574;10.054;2022-08-21T05:33:23;17.50;99.90
14000;DHT22;7075;53.574;10.054;2022-08-21T05:35:53;17.50;99.90
14000;DHT22;7075;53.574;10.054;2022-08-21T05:38:21;17.60;99.90
14000;DHT22;7075;53.574;10.054;2022-08-21T05:40:47;17.50;99.90
14000;DHT22;7075;53.574;10.054;2022-08-21T05:43:13;17.60;99.90
14000;DHT22;7075;53.574;10.054;2022-08-21T05:45:38;17.60;99.90
14000;DHT22;7075;53.574;10.054;2022-08-21T05:48:23;17.60;99.90
14000;DHT22;7075;53.574;10.054;2022-08-21T05:50:50;17.70;99.90
14000;DHT22;7075;53.574;10.054;2022-08-21T05:53:18;17.60;99.90
14000;DHT22;7075;53.574;10.054;2022-08-21T05:55:44;17.60;99.90
14000;DHT22;7075;53.574;10.054;2022-08-21T05:58:10;17.60;99.90
14000;DHT22;7075;53.574;10.054;2022-08-21T06:00:36;17.60;99.90
14000;DHT22;7075;53.574;10.054;2022-08-21T06:03:02;17.40;99.90
14000;DHT22;7075;53.574;10.054;2022-08-21T06:05:27;17.40;99.90
14000;DHT22;7075;53.574;10.054;2022-08-21T06:07:53;17.50;99.90
14000;DHT22;7075;53.574;10.054;2022-08-21T06:10:19;17.60;99.90
14000;DHT22;7075;53.574;10.054;2022-08-21T06:12:44;17.60;99.90
14000;DHT22;7075;53.574;10.054;2022-08-21T06:15:10;17.70;99.90
14000;DHT22;7075;53.574;10.054;2022-08-21T06:17:36;17.60;99.90
14000;DHT22;7075;53.574;10.054;2022-08-21T06:20:03;17.60;99.90
14000;DHT22;7075;53.574;10.054;2022-08-21T06:22:29;17.60;99.90
14000;DHT22;7075;53.574;10.054;2022-08-21T06:24:55;17.70;99.90
14000;DHT22;7075;53.574;10.054;2022-08-21T06:27:20;17.80;99.90
14000;DHT22;7075;53.574;10.054;2022-08-21T06:29:46;17.80;99.90
14000;DHT22;7075;53.574;10.054;2022-08-21T06:32:14;17.80;99.90
14000;DHT22;7075;53.574;10.054;2022-08-21T06:34:41;17.80;99.90
14000;DHT22;7075;53.574;10.054;2022-08-21T06:37:07;17.90;99.90
14000;DHT22;7075;53.574;10.054;2022-08-21T06:39:33;18.00;99.90
14000;DHT22;7075;53.574;10.054;2022-08-21T06:41:59;18.00;99.90
14000;DHT22;7075;53.574;10.054;2022-08-21T06:44:25;18.10;99.90
14000;DHT22;7075;53.574;10.054;2022-08-21T06:46:51;18.10;99.90
14000;DHT22;7075;53.574;10.054;2022-08-21T06:49:18;18.10;99.90
14000;DHT22;7075;53.574;10.054;2022-08-21T06:51:43;18.20;99.90
14000;DHT22;7075;53.574;10.054;2022-08-21T06:54:09;18.20;99.90
14000;DHT22;7075;53.574;10.054;2022-08-21T06:56:35;18.20;99.90
14000;DHT22;7075;53.574;10.054;2022-08-21T06:59:03;18.30;99.90
14000;DHT22;7075;53.574;10.054;2022-08-21T07:01:29;18.40;99.90
14000;DHT22;7075;53.574;10.054;2022-08-21T07:03:55;18.30;99.90
14000;DHT22;7075;53.574;10.054;2022-08-21T07:06:21;18.30;99.90
14000;DHT22;7075;53.574;10.054;2022-08-21T07:08:46;18.30;99.90
14000;DHT22;7075;53.574;10.054;2022-08-21T07:11:18;18.40;99.90
14000;DHT22;7075;53.574;10.054;2022-08-21T07:13:45;18.40;99.90
14000;DHT22;7075;53.574;10.054;2022-08-21T07:16:10;18.50;99.90
14000;DHT22;7075;53.574;10.054;2022-08-21T07:18:36;18.60;99.90
14000;DHT22;7075;53.574;10.054;2022-08-21T07:21:06;18.60;99.90
14000;DHT22;7075;53.574;10.054;2022-08-21T07:23:36;18.50;99.90
14000;DHT22;7075;53.574;10.054;2022-08-21T07:26:03;18.30;99.90
14000;DHT22;7075;53.574;10.054;2022-08-21T07:28:29;18.40;99.90
14000;DHT22;7075;53.574;10.054;2022-08-21T07:30:58;18.50;99.90
14000;DHT22;7075;53.574;10.054;2022-08-21T07:33:25;18.50;99.90
14000;DHT22;7075;53.574;10.054;2022-08-21T07:35:52;18.50;99.90
14000;DHT22;7075;53.574;10.054;2022-08-21T07:38:17;18.60;99.90
14000;DHT22;7075;53.574;10.054;2022-08-21T07:40:45;18.70;99.90
14000;DHT22;7075;53.574;10.054;2022-08-21T07:43:10;18.70;99.90
14000;DHT22;7075;53.574;10.054;2022-08-21T07:45:37;18.80;99.90
14000;DHT22;7075;53.574;10.054;2022-08-21T07:48:03;18.90;99.90
14000;DHT22;7075;53.574;10.054;2022-08-21T07:50:29;19.00;99.90
14000;DHT22;7075;53.574;10.054;2022-08-21T07:52:55;19.10;99.90
14000;DHT22;7075;53.574;10.054;2022-08-21T07:55:21;19.00;99.90
14000;DHT22;7075;53.574;10.054;2022-08-21T07:57:47;18.90;99.90
14000;DHT22;7075;53.574;10.054;2022-08-21T08:00:16;18.70;99.90
14000;DHT22;7075;53.574;10.054;2022-08-21T08:02:44;18.80;99.90
14000;DHT22;7075;53.574;10.054;2022-08-21T08:05:11;18.90;99.90
14000;DHT22;7075;53.574;10.054;2022-08-21T08:07:37;18.90;99.90
14000;DHT22;7075;53.574;10.054;2022-08-21T08:10:05;18.90;99.90
14000;DHT22;7075;53.574;10.054;2022-08-21T08:12:36;19.00;99.90
14000;DHT22;7075;53.574;10.054;2022-08-21T08:15:05;19.00;99.90
14000;DHT22;7075;53.574;10.054;2022-08-21T08:17:30;19.10;99.90
14000;DHT22;7075;53.574;10.054;2022-08-21T08:19:57;19.10;99.90
14000;DHT22;7075;53.574;10.054;2022-08-21T08:22:23;19.10;99.90
14000;DHT22;7075;53.574;10.054;2022-08-21T08:24:50;19.20;99.90
14000;DHT22;7075;53.574;10.054;2022-08-21T08:27:17;19.20;99.90
14000;DHT22;7075;53.574;10.054;2022-08-21T08:29:43;19.30;99.90
14000;DHT22;7075;53.574;10.054;2022-08-21T08:32:09;19.50;99.90
14000;DHT22;7075;53.574;10.054;2022-08-21T08:34:37;19.50;99.90
14000;DHT22;7075;53.574;10.054;2022-08-21T08:37:05;19.60;99.90
14000;DHT22;7075;53.574;10.054;2022-08-21T08:39:31;19.80;99.90
14000;DHT22;7075;53.574;10.054;2022-08-21T08:42:28;19.90;99.90
14000;DHT22;7075;53.574;10.054;2022-08-21T08:47:28;20.00;99.90
14000;DHT22;7075;53.574;10.054;2022-08-21T08:50:18;19.90;99.90
14000;DHT22;7075;53.574;10.054;2022-08-21T08:52:51;20.10;99.90
14000;DHT22;7075;53.574;10.054;2022-08-21T08:55:34;20.20;99.90
14000;DHT22;7075;53.574;10.054;2022-08-21T08:58:00;20.20;99.90
14000;DHT22;7075;53.574;10.054;2022-08-21T09:00:28;20.30;99.90
14000;DHT22;7075;53.574;10.054;2022-08-21T09:02:56;20.20;99.90
14000;DHT22;7075;53.574;10.054;2022-08-21T09:06:10;20.40;99.90
14000;DHT22;7075;53.574;10.054;2022-08-21T09:12:36;20.60;99.90
14000;DHT22;7075;53.574;10.054;2022-08-21T09:17:18;20.80;99.90
14000;DHT22;7075;53.574;10.054;2022-08-21T09:19:54;20.70;99.90
14000;DHT22;7075;53.574;10.054;2022-08-21T09:22:39;20.70;99.90
14000;DHT22;7075;53.574;10.054;2022-08-21T09:25:15;20.90;99.90
14000;DHT22;7075;53.574;10.054;2022-08-21T09:27:44;20.90;99.90
14000;DHT22;7075;53.574;10.054;2022-08-21T09:30:10;21.00;99.90
14000;DHT22;7075;53.574;10.054;2022-08-21T09:32:37;21.00;99.90
14000;DHT22;7075;53.574;10.054;2022-08-21T09:35:16;20.90;99.90
14000;DHT22;7075;53.574;10.054;2022-08-21T09:37:59;21.00;99.90
14000;DHT22;7075;53.574;10.054;2022-08-21T09:43:17;21.00;99.90
14000;DHT22;7075;53.574;10.054;2022-08-21T09:45:44;21.10;99.90
14000;DHT22;7075;53.574;10.054;2022-08-21T09:48:21;21.10;99.90
14000;DHT22;7075;53.574;10.054;2022-08-21T09:50:48;21.20;99.90
14000;DHT22;7075;53.574;10.054;2022-08-21T09:53:24;21.10;99.90
14000;DHT22;7075;53.574;10.054;2022-08-21T09:55:53;21.20;99.90
14000;DHT22;7075;53.574;10.054;2022-08-21T09:58:41;21.20;99.90
14000;DHT22;7075;53.574;10.054;2022-08-21T10:01:17;21.40;99.90
14000;DHT22;7075;53.574;10.054;2022-08-21T10:03:44;21.50;99.90
14000;DHT22;7075;53.574;10.054;2022-08-21T10:06:19;21.50;99.90
14000;DHT22;7075;53.574;10.054;2022-08-21T10:08:46;21.50;99.90
14000;DHT22;7075;53.574;10.054;2022-08-21T10:11:14;21.60;99.90
14000;DHT22;7075;53.574;10.054;2022-08-21T10:13:49;21.70;99.90
14000;DHT22;7075;53.574;10.054;2022-08-21T10:30:36;21.70;99.90
14000;DHT22;7075;53.574;10.054;2022-08-21T10:33:20;21.80;99.90
14000;DHT22;7075;53.574;10.054;2022-08-21T10:36:21;21.90;99.90
14000;DHT22;7075;53.574;10.054;2022-08-21T10:44:13;22.00;99.90
14000;DHT22;7075;53.574;10.054;2022-08-21T11:00:18;22.10;99.90
14000;DHT22;7075;53.574;10.054;2022-08-21T11:05:44;22.30;99.90
14000;DHT22;7075;53.574;10.054;2022-08-21T11:08:40;22.40;99.90
14000;DHT22;7075;53.574;10.054;2022-08-21T11:13:58;22.60;99.90
14000;DHT22;7075;53.574;10.054;2022-08-21T11:16:36;22.90;99.90
14000;DHT22;7075;53.574;10.054;2022-08-21T11:19:30;23.10;99.90
14000;DHT22;7075;53.574;10.054;2022-08-21T11:22:25;23.20;99.90
14000;DHT22;7075;53.574;10.054;2022-08-21T11:28:08;23.00;99.90
14000;DHT22;7075;53.574;10.054;2022-08-21T11:33:36;23.10;99.90
14000;DHT22;7075;53.574;10.054;2022-08-21T11:47:48;24.20;99.90
14000;DHT22;7075;53.574;10.054;2022-08-21T11:50:13;24.40;99.90
14000;DHT22;7075;53.574;10.054;2022-08-21T11:53:08;24.70;99.90
14000;DHT22;7075;53.574;10.054;2022-08-21T11:58:24;25.00;99.90
14000;DHT22;7075;53.574;10.054;2022-08-21T12:00:57;25.00;99.90
14000;DHT22;7075;53.574;10.054;2022-08-21T12:03:31;25.20;99.90
14000;DHT22;7075;53.574;10.054;2022-08-21T12:06:01;25.30;99.90
14000;DHT22;7075;53.574;10.054;2022-08-21T12:08:33;25.30;99.90
14000;DHT22;7075;53.574;10.054;2022-08-21T12:11:06;25.30;99.90
14000;DHT22;7075;53.574;10.054;2022-08-21T12:13:39;25.00;99.90
14000;DHT22;7075;53.574;10.054;2022-08-21T12:16:27;25.10;99.90
14000;DHT22;7075;53.574;10.054;2022-08-21T12:19:07;25.00;99.90
14000;DHT22;7075;53.574;10.054;2022-08-21T12:21:34;25.00;99.90
14000;DHT22;7075;53.574;10.054;2022-08-21T12:29:28;25.60;99.90
14000;DHT22;7075;53.574;10.054;2022-08-21T12:32:04;25.80;99.90
14000;DHT22;7075;53.574;10.054;2022-08-21T12:34:50;25.80;99.90
14000;DHT22;7075;53.574;10.054;2022-08-21T12:40:31;25.80;99.90
14000;DHT22;7075;53.574;10.054;2022-08-21T12:42:58;26.00;99.90
14000;DHT22;7075;53.574;10.054;2022-08-21T12:45:32;25.50;99.90
14000;DHT22;7075;53.574;10.054;2022-08-21T12:51:04;25.80;99.90
14000;DHT22;7075;53.574;10.054;2022-08-21T12:53:35;26.10;99.90
14000;DHT22;7075;53.574;10.054;2022-08-21T12:56:09;26.30;99.90
14000;DHT22;7075;53.574;10.054;2022-08-21T12:58:35;26.80;99.90
14000;DHT22;7075;53.574;10.054;2022-08-21T13:01:20;26.80;99.90
14000;DHT22;7075;53.574;10.054;2022-08-21T13:03:50;26.60;99.90
14000;DHT22;7075;53.574;10.054;2022-08-21T13:06:18;26.70;99.90
14000;DHT22;7075;53.574;10.054;2022-08-21T13:08:47;26.90;99.90
14000;DHT22;7075;53.574;10.054;2022-08-21T13:11:16;27.00;99.90
14000;DHT22;7075;53.574;10.054;2022-08-21T13:13:48;27.30;99.90
14000;DHT22;7075;53.574;10.054;2022-08-21T13:16:27;27.10;99.90
14000;DHT22;7075;53.574;10.054;2022-08-21T13:19:00;27.10;99.90
14000;DHT22;7075;53.574;10.054;2022-08-21T13:21:34;27.10;99.90
14000;DHT22;7075;53.574;10.054;2022-08-21T13:24:17;27.10;99.90
14000;DHT22;7075;53.574;10.054;2022-08-21T13:26:43;27.30;99.90
14000;DHT22;7075;53.574;10.054;2022-08-21T13:29:11;27.50;99.90
14000;DHT22;7075;53.574;10.054;2022-08-21T13:31:39;27.50;99.90
14000;DHT22;7075;53.574;10.054;2022-08-21T13:34:09;27.70;99.90
14000;DHT22;7075;53.574;10.054;2022-08-21T13:36:39;27.70;99.90
14000;DHT22;7075;53.574;10.054;2022-08-21T13:39:08;27.70;99.90
14000;DHT22;7075;53.574;10.054;2022-08-21T13:41:37;28.00;99.90
14000;DHT22;7075;53.574;10.054;2022-08-21T13:46:36;28.40;99.90
14000;DHT22;7075;53.574;10.054;2022-08-21T13:49:06;27.80;99.90
14000;DHT22;7075;53.574;10.054;2022-08-21T13:51:34;27.60;99.90
14000;DHT22;7075;53.574;10.054;2022-08-21T13:54:00;28.00;99.90
14000;DHT22;7075;53.574;10.054;2022-08-21T13:56:41;28.40;99.90
14000;DHT22;7075;53.574;10.054;2022-08-21T13:59:06;28.50;99.90
14000;DHT22;7075;53.574;10.054;2022-08-21T14:01:53;28.50;99.20
14000;DHT22;7075;53.574;10.054;2022-08-21T14:04:34;28.90;98.40
14000;DHT22;7075;53.574;10.054;2022-08-21T14:07:01;28.00;98.60
14000;DHT22;7075;53.574;10.054;2022-08-21T14:09:39;28.00;99.70
14000;DHT22;7075;53.574;10.054;2022-08-21T14:12:17;28.40;99.40
14000;DHT22;7075;53.574;10.054;2022-08-21T14:14:45;28.90;99.40
14000;DHT22;7075;53.574;10.054;2022-08-21T14:17:16;29.20;98.40
14000;DHT22;7075;53.574;10.054;2022-08-21T14:19:52;29.60;99.10
14000;DHT22;7075;53.574;10.054;2022-08-21T14:22:30;29.80;98.40
14000;DHT22;7075;53.574;10.054;2022-08-21T14:25:08;30.00;97.70
14000;DHT22;7075;53.574;10.054;2022-08-21T14:27:52;29.90;97.80
14000;DHT22;7075;53.574;10.054;2022-08-21T14:30:36;30.00;97.30
14000;DHT22;7075;53.574;10.054;2022-08-21T14:33:04;29.90;97.30
14000;DHT22;7075;53.574;10.054;2022-08-21T14:35:32;29.40;96.80
14000;DHT22;7075;53.574;10.054;2022-08-21T14:38:00;29.50;97.10
14000;DHT22;7075;53.574;10.054;2022-08-21T14:40:27;29.30;97.50
14000;DHT22;7075;53.574;10.054;2022-08-21T14:42:53;29.50;97.70
14000;DHT22;7075;53.574;10.054;2022-08-21T14:45:26;30.10;97.70
14000;DHT22;7075;53.574;10.054;2022-08-21T14:47:54;30.70;97.20
14000;DHT22;7075;53.574;10.054;2022-08-21T14:50:19;30.70;97.30
14000;DHT22;7075;53.574;10.054;2022-08-21T14:52:46;31.20;97.20
14000;DHT22;7075;53.574;10.054;2022-08-21T14:55:13;31.50;96.50
14000;DHT22;7075;53.574;10.054;2022-08-21T14:57:45;31.40;96.00
14000;DHT22;7075;53.574;10.054;2022-08-21T15:00:14;31.20;95.60
14000;DHT22;7075;53.574;10.054;2022-08-21T15:02:40;30.60;95.90
14000;DHT22;7075;53.574;10.054;2022-08-21T15:05:05;30.80;96.60
14000;DHT22;7075;53.574;10.054;2022-08-21T15:07:34;30.70;96.30
14000;DHT22;7075;53.574;10.054;2022-08-21T15:10:00;30.10;96.40
14000;DHT22;7075;53.574;10.054;2022-08-21T15:12:26;29.40;97.30
14000;DHT22;7075;53.574;10.054;2022-08-21T15:14:52;29.00;97.80
14000;DHT22;7075;53.574;10.054;2022-08-21T15:17:18;28.50;98.60
14000;DHT22;7075;53.574;10.054;2022-08-21T15:19:44;28.30;99.10
14000;DHT22;7075;53.574;10.054;2022-08-21T15:22:10;27.80;99.50
14000;DHT22;7075;53.574;10.054;2022-08-21T15:24:36;27.70;99.60
14000;DHT22;7075;53.574;10.054;2022-08-21T15:27:03;28.00;99.70
14000;DHT22;7075;53.574;10.054;2022-08-21T15:29:33;28.20;99.30
14000;DHT22;7075;53.574;10.054;2022-08-21T15:32:23;28.00;99.20
14000;DHT22;7075;53.574;10.054;2022-08-21T15:34:48;28.10;99.30
14000;DHT22;7075;53.574;10.054;2022-08-21T15:37:14;28.20;99.30
14000;DHT22;7075;53.574;10.054;2022-08-21T15:39:40;28.20;99.80
14000;DHT22;7075;53.574;10.054;2022-08-21T15:42:06;28.20;99.80
14000;DHT22;7075;53.574;10.054;2022-08-21T15:44:34;28.40;99.70
14000;DHT22;7075;53.574;10.054;2022-08-21T15:47:00;28.70;99.50
14000;DHT22;7075;53.574;10.054;2022-08-21T15:49:25;29.10;99.20
14000;DHT22;7075;53.574;10.054;2022-08-21T15:51:51;29.40;98.60
14000;DHT22;7075;53.574;10.054;2022-08-21T15:54:17;29.40;97.80
14000;DHT22;7075;53.574;10.054;2022-08-21T15:56:45;29.30;97.70
14000;DHT22;7075;53.574;10.054;2022-08-21T15:59:18;29.20;97.90
14000;DHT22;7075;53.574;10.054;2022-08-21T16:01:45;29.60;98.00
14000;DHT22;7075;53.574;10.054;2022-08-21T16:04:24;29.70;97.70
14000;DHT22;7075;53.574;10.054;2022-08-21T16:06:50;29.30;97.70
14000;DHT22;7075;53.574;10.054;2022-08-21T16:09:16;29.00;98.00
14000;DHT22;7075;53.574;10.054;2022-08-21T16:11:43;28.80;98.50
14000;DHT22;7075;53.574;10.054;2022-08-21T16:14:11;28.70;98.80
14000;DHT22;7075;53.574;10.054;2022-08-21T16:16:37;28.70;98.70
14000;DHT22;7075;53.574;10.054;2022-08-21T16:19:04;29.30;98.10
14000;DHT22;7075;53.574;10.054;2022-08-21T16:21:32;29.50;98.10
14000;DHT22;7075;53.574;10.054;2022-08-21T16:23:57;29.60;97.90
14000;DHT22;7075;53.574;10.054;2022-08-21T16:26:23;29.60;97.30
14000;DHT22;7075;53.574;10.054;2022-08-21T16:28:50;29.70;97.40
14000;DHT22;7075;53.574;10.054;2022-08-21T16:31:17;29.60;97.50
14000;DHT22;7075;53.574;10.054;2022-08-21T16:33:48;29.50;97.60
14000;DHT22;7075;53.574;10.054;2022-08-21T16:36:14;29.40;97.90
14000;DHT22;7075;53.574;10.054;2022-08-21T16:38:40;29.30;98.00
14000;DHT22;7075;53.574;10.054;2022-08-21T16:41:18;29.10;98.60
14000;DHT22;7075;53.574;10.054;2022-08-21T16:43:45;29.20;99.90
14000;DHT22;7075;53.574;10.054;2022-08-21T16:46:13;29.10;99.90
14000;DHT22;7075;53.574;10.054;2022-08-21T16:48:40;29.10;99.90
14000;DHT22;7075;53.574;10.054;2022-08-21T16:51:06;29.20;99.90
14000;DHT22;7075;53.574;10.054;2022-08-21T16:53:32;29.00;99.90
14000;DHT22;7075;53.574;10.054;2022-08-21T16:55:58;28.50;99.80
14000;DHT22;7075;53.574;10.054;2022-08-21T16:58:27;28.40;99.90
14000;DHT22;7075;53.574;10.054;2022-08-21T17:00:54;28.50;99.90
14000;DHT22;7075;53.574;10.054;2022-08-21T17:03:32;28.20;99.90
14000;DHT22;7075;53.574;10.054;2022-08-21T17:06:00;28.10;99.90
14000;DHT22;7075;53.574;10.054;2022-08-21T17:08:26;28.00;99.90